createdAt,value
2019-05-10T00:00:03.150Z,0.00
2019-05-10T00:01:03.157Z,0.00
2019-05-10T00:02:03.133Z,0.00
2019-05-10T00:03:03.173Z,0.00
2019-05-10T00:04:03.114Z,0.00
2019-05-10T00:05:03.095Z,0.00
2019-05-10T00:06:03.081Z,0.00
2019-05-10T00:07:03.130Z,0.00
2019-05-10T00:08:03.064Z,0.00
2019-05-10T00:09:03.047Z,0.00
2019-05-10T00:10:03.033Z,0.00
2019-05-10T00:11:03.020Z,0.00
2019-05-10T00:12:03.084Z,0.00
2019-05-10T00:13:03.019Z,0.00
2019-05-10T00:14:03.013Z,0.00
2019-05-10T00:15:02.979Z,0.00
2019-05-10T00:16:02.971Z,0.00
2019-05-10T00:17:02.959Z,0.00
2019-05-10T00:18:02.945Z,0.00
2019-05-10T00:19:02.944Z,0.00
2019-05-10T00:20:02.927Z,0.00
2019-05-10T00:21:02.914Z,0.00
2019-05-10T00:22:02.901Z,0.00
2019-05-10T00:23:02.893Z,0.00
2019-05-10T00:24:02.899Z,0.00
2019-05-10T00:25:04.959Z,0.00
2019-05-10T00:26:02.857Z,0.00
2019-05-10T00:27:02.852Z,0.00
2019-05-10T00:28:02.836Z,0.00
2019-05-10T00:29:02.866Z,0.00
2019-05-10T00:30:02.820Z,0.00
2019-05-10T00:31:02.808Z,0.00
2019-05-10T00:32:02.793Z,0.00
2019-05-10T00:33:02.862Z,0.00
2019-05-10T00:34:02.795Z,0.00
2019-05-10T00:35:02.763Z,0.00
2019-05-10T00:36:02.753Z,0.00
2019-05-10T00:37:02.744Z,0.00
2019-05-10T00:38:02.728Z,0.00
2019-05-10T00:39:02.746Z,0.00
2019-05-10T00:40:02.711Z,0.00
2019-05-10T00:41:02.706Z,0.00
2019-05-10T00:42:02.692Z,0.00
2019-05-10T00:43:02.678Z,0.00
2019-05-10T00:44:02.676Z,0.00
2019-05-10T00:45:02.681Z,0.00
2019-05-10T00:46:02.659Z,0.00
2019-05-10T00:47:02.660Z,0.00
2019-05-10T00:48:02.622Z,0.00
2019-05-10T00:49:02.611Z,0.00
2019-05-10T00:50:02.614Z,0.00
2019-05-10T00:51:02.596Z,0.00
2019-05-10T00:52:02.579Z,0.00
2019-05-10T00:53:02.569Z,0.00
2019-05-10T00:54:02.558Z,0.00
2019-05-10T00:55:16.702Z,0.00
2019-05-10T00:56:03.535Z,0.00
2019-05-10T00:57:02.528Z,0.00
2019-05-10T00:58:02.517Z,0.00
2019-05-10T00:59:02.505Z,0.00
2019-05-10T01:00:02.508Z,0.00
2019-05-10T01:01:02.532Z,0.00
2019-05-10T01:02:02.486Z,0.00
2019-05-10T01:03:02.463Z,0.00
2019-05-10T01:04:02.480Z,0.00
2019-05-10T01:05:02.458Z,0.00
2019-05-10T01:06:02.472Z,0.00
2019-05-10T01:07:02.421Z,0.00
2019-05-10T01:08:02.407Z,0.00
2019-05-10T01:09:02.399Z,0.00
2019-05-10T01:10:02.406Z,0.00
2019-05-10T01:11:02.372Z,0.00
2019-05-10T01:12:02.361Z,0.00
2019-05-10T01:13:02.352Z,0.00
2019-05-10T01:14:02.343Z,0.00
2019-05-10T01:15:02.342Z,0.00
2019-05-10T01:16:02.315Z,0.00
2019-05-10T01:17:02.308Z,0.00
2019-05-10T01:18:02.359Z,0.00
2019-05-10T01:19:02.290Z,0.00
2019-05-10T01:20:02.297Z,0.00
2019-05-10T01:21:02.263Z,0.00
2019-05-10T01:22:02.252Z,0.00
2019-05-10T01:23:02.239Z,0.00
2019-05-10T01:24:02.261Z,0.00
2019-05-10T01:25:02.228Z,0.00
2019-05-10T01:26:02.214Z,0.00
2019-05-10T01:27:02.196Z,0.00
2019-05-10T01:28:02.191Z,0.00
2019-05-10T01:29:02.175Z,0.00
2019-05-10T01:30:02.239Z,0.00
2019-05-10T01:31:02.158Z,0.00
2019-05-10T01:32:02.179Z,0.00
2019-05-10T01:33:02.132Z,0.00
2019-05-10T01:34:02.121Z,0.00
2019-05-10T01:35:02.125Z,0.00
2019-05-10T01:36:02.108Z,0.00
2019-05-10T01:37:02.089Z,0.00
2019-05-10T01:38:02.077Z,0.00
2019-05-10T01:39:02.069Z,0.00
2019-05-10T01:40:02.090Z,0.00
2019-05-10T01:41:02.044Z,0.00
2019-05-10T01:42:02.037Z,0.00
2019-05-10T01:43:02.023Z,0.00
2019-05-10T01:44:02.022Z,0.00
2019-05-10T01:45:02.053Z,0.00
2019-05-10T01:46:01.994Z,0.00
2019-05-10T01:47:01.982Z,0.00
2019-05-10T01:48:01.970Z,0.00
2019-05-10T01:49:01.957Z,0.00
2019-05-10T01:50:01.946Z,0.00
2019-05-10T01:51:02.194Z,0.00
2019-05-10T01:52:01.931Z,0.00
2019-05-10T01:53:01.918Z,0.00
2019-05-10T01:54:01.905Z,0.00
2019-05-10T01:55:01.899Z,0.00
2019-05-10T01:56:01.919Z,0.00
2019-05-10T01:57:01.916Z,0.00
2019-05-10T01:58:01.873Z,0.00
2019-05-10T01:59:01.866Z,0.00
2019-05-10T02:00:01.851Z,0.00
2019-05-10T02:01:01.899Z,0.00
2019-05-10T02:02:01.826Z,0.00
2019-05-10T02:03:01.826Z,0.00
2019-05-10T02:04:01.806Z,0.00
2019-05-10T02:05:01.808Z,0.00
2019-05-10T02:06:01.803Z,0.00
2019-05-10T02:07:01.769Z,0.00
2019-05-10T02:08:01.772Z,0.00
2019-05-10T02:09:01.750Z,0.00
2019-05-10T02:10:01.740Z,0.00
2019-05-10T02:11:01.746Z,0.00
2019-05-10T02:12:01.730Z,0.00
2019-05-10T02:13:01.703Z,0.00
2019-05-10T02:14:01.694Z,0.00
2019-05-10T02:15:01.694Z,0.00
2019-05-10T02:16:01.683Z,0.00
2019-05-10T02:17:01.663Z,0.00
2019-05-10T02:18:01.651Z,0.00
2019-05-10T02:19:01.641Z,0.00
2019-05-10T02:20:01.632Z,0.00
2019-05-10T02:21:01.635Z,0.00
2019-05-10T02:22:01.610Z,0.00
2019-05-10T02:23:01.604Z,0.00
2019-05-10T02:24:01.595Z,0.00
2019-05-10T02:25:01.583Z,0.00
2019-05-10T02:26:09.455Z,0.00
2019-05-10T02:27:02.557Z,0.00
2019-05-10T02:28:01.541Z,0.00
2019-05-10T02:29:01.533Z,0.00
2019-05-10T02:30:01.533Z,0.00
2019-05-10T02:31:01.529Z,0.00
2019-05-10T02:32:01.502Z,0.00
2019-05-10T02:33:01.497Z,0.00
2019-05-10T02:34:01.480Z,0.00
2019-05-10T02:35:01.472Z,0.00
2019-05-10T02:36:01.474Z,0.00
2019-05-10T02:37:01.453Z,0.00
2019-05-10T02:38:01.444Z,0.00
2019-05-10T02:39:01.425Z,0.00
2019-05-10T02:40:01.432Z,0.00
2019-05-10T02:41:01.440Z,0.00
2019-05-10T02:42:01.395Z,0.00
2019-05-10T02:43:01.385Z,0.00
2019-05-10T02:44:01.391Z,0.00
2019-05-10T02:45:01.360Z,0.00
2019-05-10T02:46:01.375Z,0.00
2019-05-10T02:47:01.353Z,0.00
2019-05-10T02:48:01.334Z,0.00
2019-05-10T02:49:01.337Z,0.00
2019-05-10T02:50:01.313Z,0.00
2019-05-10T02:51:01.306Z,0.00
2019-05-10T02:52:01.307Z,0.00
2019-05-10T02:53:01.309Z,0.00
2019-05-10T02:54:01.263Z,0.00
2019-05-10T02:55:01.275Z,0.00
2019-05-10T02:56:01.263Z,0.00
2019-05-10T02:57:01.230Z,0.00
2019-05-10T02:58:01.259Z,0.00
2019-05-10T02:59:01.213Z,0.00
2019-05-10T03:00:01.221Z,4.00
2019-05-10T03:01:01.239Z,4.00
2019-05-10T03:02:01.175Z,0.00
2019-05-10T03:03:01.173Z,0.00
2019-05-10T03:04:01.158Z,4.00
2019-05-10T03:05:01.143Z,4.00
2019-05-10T03:06:01.135Z,4.00
2019-05-10T03:07:01.136Z,0.00
2019-05-10T03:08:01.121Z,0.00
2019-05-10T03:09:01.102Z,4.00
2019-05-10T03:10:01.098Z,4.00
2019-05-10T03:11:01.078Z,8.00
2019-05-10T03:12:01.080Z,4.00
2019-05-10T03:13:01.060Z,8.00
2019-05-10T03:14:01.055Z,8.00
2019-05-10T03:15:01.094Z,8.00
2019-05-10T03:16:01.025Z,8.00
2019-05-10T03:17:01.030Z,12.00
2019-05-10T03:18:01.002Z,8.00
2019-05-10T03:19:00.987Z,12.00
2019-05-10T03:20:00.980Z,12.00
2019-05-10T03:21:00.973Z,12.00
2019-05-10T03:22:00.965Z,16.00
2019-05-10T03:23:00.944Z,16.00
2019-05-10T03:24:00.934Z,20.00
2019-05-10T03:25:00.921Z,20.00
2019-05-10T03:26:00.914Z,24.00
2019-05-10T03:27:00.913Z,24.00
2019-05-10T03:28:00.893Z,24.00
2019-05-10T03:29:00.893Z,28.00
2019-05-10T03:30:00.870Z,32.00
2019-05-10T03:31:00.862Z,32.00
2019-05-10T03:32:00.878Z,32.00
2019-05-10T03:33:00.841Z,40.00
2019-05-10T03:34:00.875Z,40.00
2019-05-10T03:35:00.839Z,44.00
2019-05-10T03:36:00.804Z,48.00
2019-05-10T03:37:00.830Z,52.00
2019-05-10T03:38:00.796Z,56.00
2019-05-10T03:39:00.772Z,56.00
2019-05-10T03:40:00.766Z,60.00
2019-05-10T03:41:00.752Z,64.00
2019-05-10T03:42:00.755Z,64.00
2019-05-10T03:43:00.736Z,68.00
2019-05-10T03:44:00.743Z,72.00
2019-05-10T03:45:00.822Z,72.00
2019-05-10T03:46:00.703Z,76.00
2019-05-10T03:47:00.714Z,76.00
2019-05-10T03:48:00.687Z,80.00
2019-05-10T03:49:00.671Z,88.00
2019-05-10T03:50:00.655Z,92.00
2019-05-10T03:51:00.644Z,100.00
2019-05-10T03:52:00.655Z,108.00
2019-05-10T03:53:00.622Z,112.00
2019-05-10T03:54:00.613Z,120.00
2019-05-10T03:55:00.600Z,124.00
2019-05-10T03:56:00.614Z,128.00
2019-05-10T03:57:13.387Z,132.00
2019-05-10T03:58:01.573Z,136.00
2019-05-10T03:59:00.563Z,140.00
2019-05-10T04:00:00.574Z,140.00
2019-05-10T04:01:00.555Z,144.00
2019-05-10T04:02:00.548Z,148.00
2019-05-10T04:03:00.526Z,152.00
2019-05-10T04:04:00.512Z,156.00
2019-05-10T04:05:00.498Z,160.00
2019-05-10T04:06:00.496Z,160.00
2019-05-10T04:07:00.492Z,168.00
2019-05-10T04:08:00.481Z,172.00
2019-05-10T04:09:00.459Z,176.00
2019-05-10T04:10:00.446Z,176.00
2019-05-10T04:11:00.436Z,184.00
2019-05-10T04:12:00.428Z,192.00
2019-05-10T04:13:00.425Z,200.00
2019-05-10T04:14:00.399Z,212.00
2019-05-10T04:15:00.393Z,228.00
2019-05-10T04:16:00.377Z,244.00
2019-05-10T04:17:00.366Z,252.00
2019-05-10T04:18:00.364Z,260.00
2019-05-10T04:19:00.347Z,264.00
2019-05-10T04:20:00.333Z,268.00
2019-05-10T04:21:00.329Z,276.00
2019-05-10T04:22:00.333Z,280.00
2019-05-10T04:23:00.312Z,292.00
2019-05-10T04:24:00.292Z,300.00
2019-05-10T04:25:00.280Z,312.00
2019-05-10T04:26:00.277Z,320.00
2019-05-10T04:27:00.280Z,328.00
2019-05-10T04:28:00.264Z,328.00
2019-05-10T04:29:00.242Z,328.00
2019-05-10T04:30:00.227Z,332.00
2019-05-10T04:31:00.227Z,336.00
2019-05-10T04:32:00.210Z,344.00
2019-05-10T04:33:00.247Z,344.00
2019-05-10T04:34:00.196Z,352.00
2019-05-10T04:35:00.183Z,364.00
2019-05-10T04:36:00.177Z,372.00
2019-05-10T04:37:00.177Z,380.00
2019-05-10T04:38:00.153Z,388.00
2019-05-10T04:39:00.135Z,392.00
2019-05-10T04:40:00.138Z,396.00
2019-05-10T04:41:00.137Z,400.00
2019-05-10T04:42:00.104Z,408.00
2019-05-10T04:43:00.101Z,412.00
2019-05-10T04:44:00.085Z,428.00
2019-05-10T04:45:00.096Z,436.00
2019-05-10T04:46:00.056Z,448.00
2019-05-10T04:47:00.053Z,452.00
2019-05-10T04:48:00.056Z,460.00
2019-05-10T04:49:00.023Z,472.00
2019-05-10T04:50:00.019Z,488.00
2019-05-10T04:51:00.008Z,496.00
2019-05-10T04:51:59.992Z,508.00
2019-05-10T04:52:59.998Z,516.00
2019-05-10T04:53:59.986Z,516.00
2019-05-10T04:54:59.960Z,520.00
2019-05-10T04:55:59.948Z,516.00
2019-05-10T04:57:00.276Z,516.00
2019-05-10T04:57:59.944Z,528.00
2019-05-10T04:58:59.982Z,548.00
2019-05-10T04:59:59.969Z,568.00
2019-05-10T05:00:59.958Z,592.00
2019-05-10T05:01:59.891Z,620.00
2019-05-10T05:02:59.950Z,636.00
2019-05-10T05:03:59.868Z,664.00
2019-05-10T05:04:59.853Z,696.00
2019-05-10T05:05:59.845Z,724.00
2019-05-10T05:06:59.842Z,740.00
2019-05-10T05:07:59.834Z,752.00
2019-05-10T05:08:59.812Z,764.00
2019-05-10T05:09:59.804Z,776.00
2019-05-10T05:10:59.788Z,788.00
2019-05-10T05:11:59.800Z,804.00
2019-05-10T05:12:59.781Z,824.00
2019-05-10T05:14:00.012Z,852.00
2019-05-10T05:14:59.755Z,884.00
2019-05-10T05:15:59.749Z,916.00
2019-05-10T05:16:59.732Z,944.00
2019-05-10T05:17:59.726Z,980.00
2019-05-10T05:18:59.722Z,1012.00
2019-05-10T05:19:59.702Z,1032.00
2019-05-10T05:20:59.694Z,1056.00
2019-05-10T05:21:59.692Z,1088.00
2019-05-10T05:22:59.813Z,1120.00
2019-05-10T05:23:59.691Z,1152.00
2019-05-10T05:25:01.064Z,1176.00
2019-05-10T05:25:59.636Z,1208.00
2019-05-10T05:26:59.636Z,1232.00
2019-05-10T05:28:07.804Z,1240.00
2019-05-10T05:29:00.629Z,1244.00
2019-05-10T05:29:59.587Z,1252.00
2019-05-10T05:30:59.571Z,1276.00
2019-05-10T05:32:01.263Z,1304.00
2019-05-10T05:32:59.559Z,1340.00
2019-05-10T05:34:04.800Z,1392.00
2019-05-10T05:35:00.527Z,1440.00
2019-05-10T05:36:02.134Z,1492.00
2019-05-10T05:36:59.525Z,1540.00
2019-05-10T05:37:59.513Z,1584.00
2019-05-10T05:38:59.502Z,1636.00
2019-05-10T05:39:59.472Z,1700.00
2019-05-10T05:40:59.465Z,1800.00
2019-05-10T05:41:59.453Z,1904.00
2019-05-10T05:43:02.756Z,2020.00
2019-05-10T05:44:00.439Z,1968.00
2019-05-10T05:44:59.443Z,1920.00
2019-05-10T05:45:59.411Z,1948.00
2019-05-10T05:46:59.409Z,2040.00
2019-05-10T05:47:59.389Z,2220.00
2019-05-10T05:48:59.391Z,2432.00
2019-05-10T05:49:59.368Z,2632.00
2019-05-10T05:50:59.362Z,2888.00
2019-05-10T05:51:59.362Z,4120.00
2019-05-10T05:52:59.352Z,4964.00
2019-05-10T05:53:59.365Z,4904.00
2019-05-10T05:54:59.381Z,6112.00
2019-05-10T05:56:03.732Z,4548.00
2019-05-10T05:57:00.314Z,4824.00
2019-05-10T05:58:04.534Z,6360.00
2019-05-10T05:59:00.372Z,5516.00
2019-05-10T06:00:03.881Z,4760.00
2019-05-10T06:01:00.259Z,4676.00
2019-05-10T06:02:00.594Z,3156.00
2019-05-10T06:03:00.276Z,3836.00
2019-05-10T06:04:00.198Z,2312.00
2019-05-10T06:05:00.226Z,2084.00
2019-05-10T06:05:59.199Z,1932.00
2019-05-10T06:07:00.453Z,1824.00
2019-05-10T06:07:59.214Z,1756.00
2019-05-10T06:09:00.089Z,1684.00
2019-05-10T06:09:59.157Z,1628.00
2019-05-10T06:11:00.096Z,1584.00
2019-05-10T06:11:59.130Z,1568.00
2019-05-10T06:12:59.118Z,1632.00
2019-05-10T06:14:03.616Z,1604.00
2019-05-10T06:15:00.098Z,1588.00
2019-05-10T06:16:00.342Z,1596.00
2019-05-10T06:16:59.093Z,1556.00
2019-05-10T06:18:03.601Z,1500.00
2019-05-10T06:19:00.091Z,1456.00
2019-05-10T06:20:00.816Z,1392.00
2019-05-10T06:21:00.041Z,1340.00
2019-05-10T06:22:04.477Z,1292.00
2019-05-10T06:23:06.617Z,1260.00
2019-05-10T06:24:00.050Z,1264.00
2019-05-10T06:24:58.994Z,1320.00
2019-05-10T06:25:58.983Z,1388.00
2019-05-10T06:27:03.493Z,1500.00
2019-05-10T06:27:59.983Z,1616.00
2019-05-10T06:29:03.723Z,1724.00
2019-05-10T06:29:59.942Z,1824.00
2019-05-10T06:30:58.924Z,1880.00
2019-05-10T06:31:59.128Z,1996.00
2019-05-10T06:33:00.820Z,2068.00
2019-05-10T06:33:58.920Z,2116.00
2019-05-10T06:34:58.882Z,2128.00
2019-05-10T06:35:58.871Z,2136.00
2019-05-10T06:36:58.858Z,2184.00
2019-05-10T06:37:58.859Z,2284.00
2019-05-10T06:38:58.841Z,2400.00
2019-05-10T06:39:58.846Z,2516.00
2019-05-10T06:40:58.816Z,2584.00
2019-05-10T06:41:58.808Z,2652.00
2019-05-10T06:42:58.793Z,2692.00
2019-05-10T06:43:58.789Z,2720.00
2019-05-10T06:45:04.977Z,2744.00
2019-05-10T06:45:59.834Z,2748.00
2019-05-10T06:47:02.055Z,2824.00
2019-05-10T06:47:59.742Z,2904.00
2019-05-10T06:49:07.263Z,2896.00
2019-05-10T06:49:59.733Z,2904.00
2019-05-10T06:51:03.009Z,2928.00
2019-05-10T06:51:59.701Z,2812.00
2019-05-10T06:53:00.718Z,2840.00
2019-05-10T06:53:59.674Z,2960.00
2019-05-10T06:54:58.923Z,3412.00
2019-05-10T06:55:58.682Z,6468.00
2019-05-10T06:56:58.643Z,3216.00
2019-05-10T06:58:00.692Z,2980.00
2019-05-10T06:59:12.338Z,2832.00
2019-05-10T07:00:05.966Z,2800.00
2019-05-10T07:00:59.605Z,2928.00
2019-05-10T07:01:58.590Z,2736.00
2019-05-10T07:02:58.589Z,2836.00
2019-05-10T07:03:58.570Z,4700.00
2019-05-10T07:04:58.597Z,7376.00
2019-05-10T07:05:58.550Z,2584.00
2019-05-10T07:06:58.568Z,2480.00
2019-05-10T07:08:13.833Z,2516.00
2019-05-10T07:08:59.596Z,2560.00
2019-05-10T07:10:08.334Z,2584.00
2019-05-10T07:10:59.490Z,2600.00
2019-05-10T07:11:58.484Z,2604.00
2019-05-10T07:13:03.596Z,2636.00
2019-05-10T07:13:59.470Z,2612.00
2019-05-10T07:15:03.478Z,2604.00
2019-05-10T07:15:59.451Z,2548.00
2019-05-10T07:17:02.820Z,2456.00
2019-05-10T07:17:59.424Z,2412.00
2019-05-10T07:19:00.487Z,2384.00
2019-05-10T07:19:58.417Z,2336.00
2019-05-10T07:21:00.950Z,2276.00
2019-05-10T07:21:59.372Z,2232.00
2019-05-10T07:23:00.033Z,2196.00
2019-05-10T07:23:59.365Z,2196.00
2019-05-10T07:25:04.535Z,2144.00
2019-05-10T07:25:59.336Z,2076.00
2019-05-10T07:27:02.102Z,2028.00
2019-05-10T07:27:58.310Z,2064.00
2019-05-10T07:28:59.410Z,2148.00
2019-05-10T07:29:58.297Z,2232.00
2019-05-10T07:30:58.287Z,2352.00
2019-05-10T07:31:58.266Z,2460.00
2019-05-10T07:32:59.707Z,2580.00
2019-05-10T07:33:58.248Z,2684.00
2019-05-10T07:35:00.776Z,2788.00
2019-05-10T07:35:58.224Z,2832.00
2019-05-10T07:37:01.570Z,2800.00
2019-05-10T07:37:58.233Z,2800.00
2019-05-10T07:39:02.718Z,2912.00
2019-05-10T07:39:59.188Z,3256.00
2019-05-10T07:40:58.173Z,3764.00
2019-05-10T07:42:00.264Z,4100.00
2019-05-10T07:42:59.147Z,4396.00
2019-05-10T07:44:00.614Z,4460.00
2019-05-10T07:44:59.169Z,4612.00
2019-05-10T07:46:06.171Z,4796.00
2019-05-10T07:46:59.107Z,4856.00
2019-05-10T07:48:02.364Z,4808.00
2019-05-10T07:48:59.080Z,4688.00
2019-05-10T07:49:58.110Z,5064.00
2019-05-10T07:50:58.071Z,5248.00
2019-05-10T07:52:02.081Z,4792.00
2019-05-10T07:52:58.038Z,4784.00
2019-05-10T07:54:04.806Z,4664.00
2019-05-10T07:54:59.018Z,4728.00
2019-05-10T07:55:59.838Z,4796.00
2019-05-10T07:56:58.995Z,5076.00
2019-05-10T07:57:59.202Z,5160.00
2019-05-10T07:59:00.749Z,5524.00
2019-05-10T08:00:03.493Z,5532.00
2019-05-10T08:00:59.000Z,6420.00
2019-05-10T08:01:58.010Z,9920.00
2019-05-10T08:03:12.414Z,9492.00
2019-05-10T08:03:59.229Z,6284.00
2019-05-10T08:04:58.481Z,6268.00
2019-05-10T08:06:01.787Z,7028.00
2019-05-10T08:06:59.676Z,8000.00
2019-05-10T08:07:58.868Z,6604.00
2019-05-10T08:09:01.995Z,8252.00
2019-05-10T08:09:59.424Z,7924.00
2019-05-10T08:10:59.348Z,8016.00
2019-05-10T08:12:03.187Z,7352.00
2019-05-10T08:13:01.363Z,6204.00
2019-05-10T08:14:06.115Z,9612.00
2019-05-10T08:14:59.062Z,8540.00
2019-05-10T08:15:59.423Z,9184.00
2019-05-10T08:17:01.927Z,8816.00
2019-05-10T08:17:58.768Z,9104.00
2019-05-10T08:19:00.918Z,6556.00
2019-05-10T08:19:57.748Z,9276.00
2019-05-10T08:21:02.249Z,6372.00
2019-05-10T08:22:01.806Z,7620.00
2019-05-10T08:22:58.712Z,5268.00
2019-05-10T08:23:59.040Z,5588.00
2019-05-10T08:24:58.695Z,5076.00
2019-05-10T08:25:57.734Z,6164.00
2019-05-10T08:27:09.765Z,6812.00
2019-05-10T08:27:58.665Z,9276.00
2019-05-10T08:28:57.659Z,8280.00
2019-05-10T08:30:17.808Z,7472.00
2019-05-10T08:30:59.115Z,10072.00
2019-05-10T08:31:57.618Z,9132.00
2019-05-10T08:33:00.197Z,10160.00
2019-05-10T08:33:59.248Z,6824.00
2019-05-10T08:34:57.599Z,9480.00
2019-05-10T08:36:00.451Z,5884.00
2019-05-10T08:36:58.563Z,6560.00
2019-05-10T08:37:57.557Z,9884.00
2019-05-10T08:39:07.056Z,7220.00
2019-05-10T08:39:58.535Z,6708.00
2019-05-10T08:40:57.532Z,6236.00
2019-05-10T08:42:08.834Z,6152.00
2019-05-10T08:43:04.882Z,5352.00
2019-05-10T08:43:58.490Z,5356.00
2019-05-10T08:45:03.777Z,5924.00
2019-05-10T08:45:58.491Z,5908.00
2019-05-10T08:46:57.464Z,5552.00
2019-05-10T08:48:00.655Z,5684.00
2019-05-10T08:48:58.459Z,4864.00
2019-05-10T08:50:10.537Z,7736.00
2019-05-10T08:51:04.087Z,8708.00
2019-05-10T08:51:58.423Z,6320.00
2019-05-10T08:53:04.357Z,7736.00
2019-05-10T08:53:58.527Z,9100.00
2019-05-10T08:54:57.372Z,8268.00
2019-05-10T08:55:58.994Z,7364.00
2019-05-10T08:57:01.321Z,5152.00
2019-05-10T08:57:58.336Z,5480.00
2019-05-10T08:58:57.327Z,5644.00
2019-05-10T09:00:06.607Z,7356.00
2019-05-10T09:01:15.498Z,8728.00
2019-05-10T09:01:58.299Z,11244.00
2019-05-10T09:03:02.970Z,9216.00
2019-05-10T09:04:00.778Z,8220.00
2019-05-10T09:04:58.258Z,9516.00
2019-05-10T09:05:57.247Z,7840.00
2019-05-10T09:06:59.888Z,6980.00
2019-05-10T09:07:57.233Z,5948.00
2019-05-10T09:09:01.685Z,6144.00
2019-05-10T09:09:58.226Z,4024.00
2019-05-10T09:10:57.193Z,4140.00
2019-05-10T09:11:57.673Z,4540.00
2019-05-10T09:12:58.422Z,4848.00
2019-05-10T09:13:57.837Z,4568.00
2019-05-10T09:15:05.494Z,4980.00
2019-05-10T09:15:58.165Z,4872.00
2019-05-10T09:17:03.489Z,5512.00
2019-05-10T09:18:02.849Z,8708.00
2019-05-10T09:18:58.104Z,9832.00
2019-05-10T09:19:57.099Z,11092.00
2019-05-10T09:21:02.609Z,12460.00
2019-05-10T09:21:58.086Z,9748.00
2019-05-10T09:22:57.109Z,9844.00
2019-05-10T09:24:01.347Z,10012.00
2019-05-10T09:24:58.041Z,10656.00
2019-05-10T09:26:03.744Z,10260.00
2019-05-10T09:26:58.053Z,9404.00
2019-05-10T09:28:02.357Z,7520.00
2019-05-10T09:28:58.003Z,4304.00
2019-05-10T09:29:56.988Z,2756.00
2019-05-10T09:31:01.222Z,2424.00
2019-05-10T09:32:01.033Z,2636.00
2019-05-10T09:33:00.988Z,2680.00
2019-05-10T09:33:57.946Z,2412.00
2019-05-10T09:34:59.742Z,2320.00
2019-05-10T09:35:59.313Z,2444.00
2019-05-10T09:36:56.927Z,2740.00
2019-05-10T09:37:58.525Z,3024.00
2019-05-10T09:38:56.900Z,3092.00
2019-05-10T09:40:05.415Z,3100.00
2019-05-10T09:40:57.873Z,3040.00
2019-05-10T09:41:56.877Z,3016.00
2019-05-10T09:42:59.410Z,2972.00
2019-05-10T09:43:57.858Z,2956.00
2019-05-10T09:44:56.863Z,2884.00
2019-05-10T09:45:56.860Z,2820.00
2019-05-10T09:46:56.819Z,2628.00
2019-05-10T09:47:56.795Z,2376.00
2019-05-10T09:49:06.141Z,1852.00
2019-05-10T09:49:58.956Z,1504.00
2019-05-10T09:51:00.642Z,1288.00
2019-05-10T09:51:57.778Z,1092.00
2019-05-10T09:52:56.748Z,1080.00
2019-05-10T09:53:57.914Z,1096.00
2019-05-10T09:54:57.113Z,1196.00
2019-05-10T09:56:02.558Z,1460.00
2019-05-10T09:56:57.775Z,1584.00
2019-05-10T09:57:58.313Z,1508.00
2019-05-10T09:58:58.185Z,1448.00
2019-05-10T09:59:57.217Z,1420.00
2019-05-10T10:01:12.826Z,1372.00
2019-05-10T10:01:57.646Z,1372.00
2019-05-10T10:03:01.176Z,1408.00
2019-05-10T10:03:58.433Z,1500.00
2019-05-10T10:04:58.841Z,1616.00
2019-05-10T10:06:05.152Z,1748.00
2019-05-10T10:06:58.128Z,1936.00
2019-05-10T10:07:57.840Z,2168.00
2019-05-10T10:08:57.730Z,2460.00
2019-05-10T10:09:57.120Z,2724.00
2019-05-10T10:11:01.095Z,2884.00
2019-05-10T10:12:01.052Z,2992.00
2019-05-10T10:13:07.321Z,3024.00
2019-05-10T10:14:00.015Z,3036.00
2019-05-10T10:14:56.516Z,3204.00
2019-05-10T10:15:58.140Z,3520.00
2019-05-10T10:17:00.554Z,3768.00
2019-05-10T10:17:58.298Z,3476.00
2019-05-10T10:18:56.476Z,3188.00
2019-05-10T10:19:57.857Z,3140.00
2019-05-10T10:20:56.448Z,3268.00
2019-05-10T10:21:57.608Z,3476.00
2019-05-10T10:22:56.455Z,3656.00
2019-05-10T10:24:00.037Z,3912.00
2019-05-10T10:25:00.465Z,4204.00
2019-05-10T10:25:58.006Z,4656.00
2019-05-10T10:26:58.132Z,5168.00
2019-05-10T10:27:57.412Z,5980.00
2019-05-10T10:28:59.515Z,7048.00
2019-05-10T10:29:57.354Z,8312.00
2019-05-10T10:31:03.034Z,9528.00
2019-05-10T10:31:58.948Z,10600.00
2019-05-10T10:32:58.119Z,10332.00
2019-05-10T10:33:59.499Z,11108.00
2019-05-10T10:34:57.760Z,10756.00
2019-05-10T10:36:04.812Z,10276.00
2019-05-10T10:36:58.041Z,10428.00
2019-05-10T10:37:57.541Z,9780.00
2019-05-10T10:38:57.252Z,9416.00
2019-05-10T10:40:00.737Z,10916.00
2019-05-10T10:40:57.704Z,10800.00
2019-05-10T10:41:57.109Z,9800.00
2019-05-10T10:42:57.732Z,8872.00
2019-05-10T10:43:58.376Z,8304.00
2019-05-10T10:44:56.183Z,10124.00
2019-05-10T10:45:57.459Z,10520.00
2019-05-10T10:46:58.226Z,11788.00
2019-05-10T10:47:57.313Z,10260.00
2019-05-10T10:48:56.144Z,9768.00
2019-05-10T10:49:57.884Z,9272.00
2019-05-10T10:50:58.519Z,7168.00
2019-05-10T10:51:57.360Z,6076.00
2019-05-10T10:52:57.470Z,5824.00
2019-05-10T10:53:58.107Z,6356.00
2019-05-10T10:54:57.648Z,8236.00
2019-05-10T10:56:02.467Z,8736.00
2019-05-10T10:56:59.437Z,7836.00
2019-05-10T10:57:57.661Z,7136.00
2019-05-10T10:58:58.071Z,8280.00
2019-05-10T10:59:57.453Z,10456.00
2019-05-10T11:00:56.045Z,11336.00
2019-05-10T11:02:25.376Z,11800.00
2019-05-10T11:02:56.996Z,11780.00
2019-05-10T11:03:55.990Z,10960.00
2019-05-10T11:04:55.974Z,8984.00
2019-05-10T11:05:55.971Z,8024.00
2019-05-10T11:07:09.197Z,6848.00
2019-05-10T11:07:56.940Z,5904.00
2019-05-10T11:08:55.940Z,5352.00
2019-05-10T11:10:12.266Z,5216.00
2019-05-10T11:10:56.907Z,4840.00
2019-05-10T11:11:55.903Z,4228.00
2019-05-10T11:12:56.264Z,3752.00
2019-05-10T11:14:00.433Z,3412.00
2019-05-10T11:14:56.861Z,3220.00
2019-05-10T11:15:58.959Z,3140.00
2019-05-10T11:16:57.325Z,3028.00
2019-05-10T11:17:55.845Z,2964.00
2019-05-10T11:18:55.852Z,2836.00
2019-05-10T11:19:55.809Z,2772.00
2019-05-10T11:20:55.795Z,2780.00
2019-05-10T11:21:55.788Z,3064.00
2019-05-10T11:22:55.776Z,3364.00
2019-05-10T11:23:55.781Z,3396.00
2019-05-10T11:25:00.698Z,3364.00
2019-05-10T11:25:56.832Z,3384.00
2019-05-10T11:26:55.732Z,3392.00
2019-05-10T11:27:58.576Z,3480.00
2019-05-10T11:28:56.728Z,3476.00
2019-05-10T11:29:55.728Z,3504.00
2019-05-10T11:30:55.687Z,3472.00
2019-05-10T11:32:12.153Z,3344.00
2019-05-10T11:32:56.667Z,3228.00
2019-05-10T11:33:58.429Z,3144.00
2019-05-10T11:34:56.683Z,3104.00
2019-05-10T11:35:57.547Z,3116.00
2019-05-10T11:36:56.630Z,2912.00
2019-05-10T11:37:55.617Z,2940.00
2019-05-10T11:38:58.587Z,3208.00
2019-05-10T11:39:55.615Z,3452.00
2019-05-10T11:40:55.592Z,3864.00
2019-05-10T11:42:02.035Z,4384.00
2019-05-10T11:42:56.562Z,4852.00
2019-05-10T11:43:57.994Z,5156.00
2019-05-10T11:44:56.553Z,5600.00
2019-05-10T11:45:55.526Z,6120.00
2019-05-10T11:46:55.520Z,7048.00
2019-05-10T11:47:59.080Z,8164.00
2019-05-10T11:48:56.496Z,7692.00
2019-05-10T11:49:55.492Z,7284.00
2019-05-10T11:50:55.471Z,7560.00
2019-05-10T11:51:58.681Z,8204.00
2019-05-10T11:52:55.450Z,8236.00
2019-05-10T11:53:59.658Z,8556.00
2019-05-10T11:54:55.437Z,8904.00
2019-05-10T11:55:55.416Z,16320.00
2019-05-10T11:56:58.468Z,18816.00
2019-05-10T11:58:03.295Z,6968.00
2019-05-10T11:58:56.380Z,5600.00
2019-05-10T11:59:55.379Z,6100.00
2019-05-10T12:00:59.309Z,21728.00
2019-05-10T12:01:59.400Z,22016.00
2019-05-10T12:03:07.413Z,22592.00
2019-05-10T12:03:56.327Z,6012.00
2019-05-10T12:04:55.328Z,4492.00
2019-05-10T12:06:04.296Z,3764.00
2019-05-10T12:06:56.294Z,3628.00
2019-05-10T12:07:55.287Z,3940.00
2019-05-10T12:09:01.214Z,4184.00
2019-05-10T12:10:07.532Z,3936.00
2019-05-10T12:11:07.496Z,4096.00
2019-05-10T12:11:57.046Z,4116.00
2019-05-10T12:13:10.929Z,3680.00
2019-05-10T12:13:57.560Z,2988.00
2019-05-10T12:14:55.218Z,2476.00
2019-05-10T12:15:55.202Z,2316.00
2019-05-10T12:16:55.190Z,2224.00
2019-05-10T12:17:59.603Z,1896.00
2019-05-10T12:19:15.089Z,1580.00
2019-05-10T12:19:56.644Z,1320.00
2019-05-10T12:21:56.422Z,968.00
2019-05-10T12:22:55.125Z,884.00
2019-05-10T12:23:56.651Z,836.00
2019-05-10T12:25:18.701Z,820.00
2019-05-10T12:26:27.898Z,1132.00
2019-05-10T12:27:09.332Z,812.00
2019-05-10T12:27:56.069Z,872.00